createdAt,value
2018-11-20T00:00:39.017Z,1.80
2018-11-20T00:03:38.426Z,1.70
2018-11-20T00:06:59.480Z,1.00
2018-11-20T00:10:01.359Z,1.50
2018-11-20T00:12:38.564Z,1.20
2018-11-20T00:15:45.278Z,1.90
2018-11-20T00:18:35.235Z,1.80
2018-11-20T00:21:24.907Z,2.10
2018-11-20T00:24:24.286Z,2.10
2018-11-20T00:27:26.900Z,2.20
2018-11-20T00:30:26.421Z,3.00
2018-11-20T00:33:14.133Z,3.70
2018-11-20T00:36:01.759Z,2.70
2018-11-20T00:39:08.329Z,4.00
2018-11-20T00:42:08.124Z,3.80
2018-11-20T00:45:11.043Z,3.50
2018-11-20T00:48:10.648Z,3.70
2018-11-20T00:51:10.257Z,4.30
2018-11-20T00:53:59.344Z,5.00
2018-11-20T00:56:59.076Z,5.10
2018-11-20T00:59:58.100Z,5.60
2018-11-20T01:02:57.717Z,5.10
2018-11-20T01:05:57.500Z,5.60
2018-11-20T01:09:00.468Z,6.00
2018-11-20T01:11:59.405Z,5.70
2018-11-20T01:14:59.070Z,5.20
2018-11-20T01:17:48.138Z,4.80
2018-11-20T01:20:36.650Z,5.40
2018-11-20T01:23:24.192Z,5.40
2018-11-20T01:26:30.717Z,5.20
2018-11-20T01:29:21.283Z,5.80
2018-11-20T01:32:20.704Z,5.80
2018-11-20T01:35:20.365Z,5.80
2018-11-20T01:38:20.145Z,5.90
2018-11-20T01:41:12.224Z,5.10
2018-11-20T01:44:12.015Z,5.40
2018-11-20T01:47:13.420Z,5.50
2018-11-20T01:50:01.176Z,6.20
2018-11-20T01:52:58.065Z,6.20
2018-11-20T01:55:57.391Z,6.50
2018-11-20T01:58:56.362Z,7.20
2018-11-20T02:01:58.812Z,6.60
2018-11-20T02:04:58.039Z,6.90
2018-11-20T02:07:57.815Z,6.20
2018-11-20T02:11:00.845Z,5.50
2018-11-20T02:14:26.763Z,5.60
2018-11-20T02:17:35.181Z,5.80
2018-11-20T02:20:35.070Z,5.30
2018-11-20T02:23:40.520Z,6.50
2018-11-20T02:26:40.435Z,5.90
2018-11-20T02:29:40.471Z,5.80
2018-11-20T02:32:40.105Z,6.60
2018-11-20T02:35:34.750Z,5.80
2018-11-20T02:38:33.744Z,6.20
2018-11-20T02:41:27.355Z,7.00
2018-11-20T02:44:26.708Z,6.90
2018-11-20T02:50:30.760Z,6.40
2018-11-20T02:53:30.006Z,7.40
2018-11-20T02:56:29.780Z,7.30
2018-11-20T02:59:29.694Z,7.30
2018-11-20T03:02:20.049Z,7.40
2018-11-20T03:05:19.090Z,7.30
2018-11-20T03:08:18.654Z,7.50
2018-11-20T03:11:18.438Z,7.50
2018-11-20T03:14:18.462Z,7.80
2018-11-20T03:17:18.191Z,7.60
2018-11-20T03:20:20.445Z,7.50
2018-11-20T03:23:19.636Z,7.40
2018-11-20T03:26:25.291Z,8.00
2018-11-20T03:29:24.207Z,7.70
2018-11-20T03:32:26.996Z,8.10
2018-11-20T03:35:28.958Z,7.60
2018-11-20T03:38:28.683Z,8.20
2018-11-20T03:41:28.354Z,7.60
2018-11-20T03:44:30.496Z,7.60
2018-11-20T03:47:26.715Z,7.70
2018-11-20T03:50:19.793Z,8.30
2018-11-20T03:53:19.660Z,7.90
2018-11-20T03:56:22.144Z,8.10
2018-11-20T03:59:09.592Z,8.20
2018-11-20T04:01:57.119Z,7.70
2018-11-20T04:04:59.599Z,8.30
2018-11-20T04:07:59.461Z,7.70
2018-11-20T04:10:59.250Z,7.80
2018-11-20T04:13:59.030Z,8.20
2018-11-20T04:16:58.949Z,7.30
2018-11-20T04:19:56.066Z,8.00
2018-11-20T04:22:55.088Z,8.10
2018-11-20T04:25:54.768Z,8.20
2018-11-20T04:28:53.823Z,7.70
2018-11-20T04:31:46.231Z,7.10
2018-11-20T04:34:48.654Z,7.80
2018-11-20T04:37:47.991Z,7.50
2018-11-20T04:40:47.642Z,7.60
2018-11-20T04:43:47.320Z,7.60
2018-11-20T04:46:49.772Z,7.60
2018-11-20T04:49:48.812Z,6.60
2018-11-20T04:52:48.535Z,7.80
2018-11-20T04:55:47.555Z,7.30
2018-11-20T04:58:44.130Z,7.60
2018-11-20T05:01:43.090Z,7.10
2018-11-20T05:04:40.506Z,6.60
2018-11-20T05:07:42.552Z,6.80
2018-11-20T05:10:42.461Z,6.80
2018-11-20T05:13:42.275Z,5.90
2018-11-20T05:16:41.910Z,6.30
2018-11-20T05:22:14.597Z,6.20
2018-11-20T05:25:12.262Z,7.20
2018-11-20T05:28:11.573Z,7.40
2018-11-20T05:31:11.347Z,7.30
2018-11-20T05:34:10.983Z,7.30
2018-11-20T05:37:11.077Z,6.30
2018-11-20T05:39:58.545Z,6.40
2018-11-20T05:43:01.727Z,6.00
2018-11-20T05:46:01.465Z,6.10
2018-11-20T05:49:00.426Z,7.40
2018-11-20T05:54:52.040Z,7.70
2018-11-20T05:57:46.505Z,6.60
2018-11-20T06:00:33.928Z,6.80
2018-11-20T06:03:40.577Z,7.70
2018-11-20T06:07:01.854Z,7.20
2018-11-20T06:10:08.428Z,7.20
2018-11-20T06:13:13.415Z,6.40
2018-11-20T06:16:02.788Z,6.40
2018-11-20T06:19:02.451Z,6.30
2018-11-20T06:21:51.104Z,6.10
2018-11-20T06:24:49.193Z,5.70
2018-11-20T06:27:49.057Z,5.70
2018-11-20T06:30:49.073Z,5.10
2018-11-20T06:33:51.006Z,5.70
2018-11-20T06:36:46.025Z,6.00
2018-11-20T06:39:39.694Z,5.50
2018-11-20T06:42:36.679Z,5.10
2018-11-20T06:45:41.602Z,4.60
2018-11-20T06:48:40.714Z,4.80
2018-11-20T06:51:39.652Z,4.90
2018-11-20T06:54:39.428Z,5.10
2018-11-20T06:57:45.312Z,5.40
2018-11-20T07:00:44.206Z,5.70
2018-11-20T07:03:46.898Z,5.40
2018-11-20T07:06:34.242Z,5.40
2018-11-20T07:09:40.888Z,5.00
2018-11-20T07:12:39.708Z,5.10
2018-11-20T07:15:33.873Z,5.10
2018-11-20T07:18:32.763Z,4.80
2018-11-20T07:21:32.280Z,4.70
2018-11-20T07:24:31.286Z,4.60
2018-11-20T07:27:30.446Z,4.80
2018-11-20T07:30:36.810Z,5.00
2018-11-20T07:33:35.786Z,4.70
2018-11-20T07:36:35.650Z,5.20
2018-11-20T07:39:35.449Z,5.20
2018-11-20T07:42:22.915Z,4.80
2018-11-20T07:45:25.574Z,4.90
2018-11-20T07:48:28.330Z,4.90
2018-11-20T07:54:27.373Z,5.00
2018-11-20T07:57:21.804Z,5.30
2018-11-20T08:00:21.213Z,5.40
2018-11-20T08:06:29.875Z,5.10
2018-11-20T08:09:29.659Z,4.90
2018-11-20T08:12:19.176Z,4.70
2018-11-20T08:15:17.304Z,4.80
2018-11-20T08:18:13.721Z,5.60
2018-11-20T08:21:03.662Z,4.70
2018-11-20T08:24:02.646Z,5.10
2018-11-20T08:27:01.949Z,4.70
2018-11-20T08:30:01.682Z,4.50
2018-11-20T08:32:45.146Z,5.30
2018-11-20T08:35:51.793Z,5.20
2018-11-20T08:38:54.002Z,5.60
2018-11-20T08:41:33.158Z,5.30
2018-11-20T08:44:32.550Z,4.90
2018-11-20T08:47:32.339Z,5.20
2018-11-20T08:50:31.864Z,5.60
2018-11-20T08:53:20.148Z,5.80
2018-11-20T08:56:27.496Z,5.60
2018-11-20T08:59:27.171Z,5.20
2018-11-20T09:02:26.163Z,6.10
2018-11-20T09:05:24.448Z,5.90
2018-11-20T09:08:19.734Z,5.90
2018-11-20T09:17:41.219Z,4.90
2018-11-20T09:20:26.777Z,5.20
2018-11-20T09:23:33.500Z,5.40
2018-11-20T09:26:45.056Z,5.40
2018-11-20T09:29:53.769Z,5.30
2018-11-20T09:32:53.875Z,5.30
2018-11-20T09:35:53.236Z,5.80
2018-11-20T09:38:52.110Z,5.40
2018-11-20T09:41:46.741Z,5.50
2018-11-20T09:44:46.602Z,5.00
2018-11-20T09:47:39.400Z,4.50
2018-11-20T09:50:39.046Z,5.20
2018-11-20T09:53:47.438Z,4.50
2018-11-20T09:56:46.925Z,4.50
2018-11-20T09:59:46.000Z,4.20
2018-11-20T10:06:03.556Z,4.70
2018-11-20T10:09:12.225Z,4.60
2018-11-20T10:12:18.971Z,3.70
2018-11-20T10:15:20.183Z,4.30
2018-11-20T10:18:00.550Z,4.00
2018-11-20T10:24:05.137Z,4.50
2018-11-20T10:30:44.477Z,3.40
2018-11-20T10:33:44.248Z,4.50
2018-11-20T10:39:29.538Z,4.80
2018-11-20T10:42:35.430Z,4.40
2018-11-20T10:45:34.591Z,4.20
2018-11-20T10:48:37.478Z,4.90
2018-11-20T10:51:18.819Z,5.50
2018-11-20T10:54:18.337Z,5.00
2018-11-20T10:57:18.144Z,5.20
2018-11-20T11:00:23.737Z,4.30
2018-11-20T11:03:22.817Z,5.30
2018-11-20T11:06:22.403Z,5.30
2018-11-20T11:09:23.056Z,5.40
2018-11-20T11:12:06.247Z,5.10
2018-11-20T11:15:05.692Z,5.40
2018-11-20T11:21:11.219Z,6.10
2018-11-20T11:24:10.004Z,5.30
2018-11-20T11:27:03.368Z,5.30
2018-11-20T11:29:51.330Z,4.70
2018-11-20T11:32:38.916Z,5.10
2018-11-20T11:35:38.442Z,4.90
2018-11-20T11:38:18.847Z,5.30
2018-11-20T11:41:25.454Z,4.80
2018-11-20T11:44:25.101Z,5.10
2018-11-20T11:47:27.264Z,4.50
2018-11-20T11:50:17.432Z,4.30
2018-11-20T11:53:26.055Z,4.20
2018-11-20T11:56:26.828Z,4.90
2018-11-20T11:59:30.685Z,4.20
2018-11-20T12:05:06.354Z,4.00
2018-11-20T12:08:05.438Z,4.20
2018-11-20T12:11:04.301Z,4.30
2018-11-20T12:13:54.995Z,4.20
2018-11-20T12:20:27.902Z,4.10
2018-11-20T12:23:27.369Z,4.40
2018-11-20T12:26:35.615Z,4.60
2018-11-20T12:29:20.055Z,4.20
2018-11-20T12:32:31.110Z,4.30
2018-11-20T12:35:33.675Z,3.80
2018-11-20T12:41:59.543Z,3.90
2018-11-20T12:44:59.385Z,4.70
2018-11-20T12:51:35.909Z,5.00
2018-11-20T12:54:43.732Z,4.40
2018-11-20T12:57:34.539Z,5.10
2018-11-20T13:00:30.308Z,5.20
2018-11-20T13:03:35.608Z,5.50
2018-11-20T13:06:35.447Z,5.40
2018-11-20T13:12:44.638Z,5.10
2018-11-20T13:15:44.040Z,5.80
2018-11-20T13:18:43.137Z,5.00
2018-11-20T13:21:45.154Z,5.10
2018-11-20T13:27:42.963Z,4.70
2018-11-20T13:30:45.827Z,5.40
2018-11-20T13:36:33.972Z,5.70
2018-11-20T13:39:45.822Z,5.90
2018-11-20T13:42:45.088Z,5.50
2018-11-20T13:45:45.973Z,5.40
2018-11-20T13:48:45.301Z,5.60
2018-11-20T13:51:49.469Z,5.70
2018-11-20T14:01:03.495Z,4.50
2018-11-20T14:03:57.640Z,4.90
2018-11-20T14:06:57.162Z,4.80
2018-11-20T14:12:37.512Z,5.00
2018-11-20T14:15:29.188Z,5.20
2018-11-20T14:18:09.966Z,4.80
2018-11-20T14:21:09.462Z,5.30
2018-11-20T14:24:08.538Z,5.10
2018-11-20T14:26:50.182Z,4.30
2018-11-20T14:29:49.616Z,4.50
2018-11-20T14:32:51.663Z,4.60
2018-11-20T14:38:56.470Z,5.20
2018-11-20T14:41:45.951Z,5.40
2018-11-20T14:44:34.691Z,5.10
2018-11-20T14:50:37.104Z,5.60
2018-11-20T14:53:38.087Z,5.50
2018-11-20T14:56:39.946Z,5.60
2018-11-20T14:59:39.554Z,6.00
2018-11-20T15:02:39.359Z,6.10
2018-11-20T15:05:19.737Z,6.50
2018-11-20T15:08:19.593Z,6.40
2018-11-20T15:11:14.047Z,7.20
2018-11-20T15:14:13.741Z,8.20
2018-11-20T15:17:13.589Z,8.60
2018-11-20T15:20:13.015Z,10.10
2018-11-20T15:23:14.829Z,10.90
2018-11-20T15:26:13.812Z,12.60
2018-11-20T15:29:13.368Z,12.40
2018-11-20T15:32:12.450Z,13.90
2018-11-20T15:35:15.171Z,15.30
2018-11-20T15:38:14.498Z,16.70
2018-11-20T15:41:03.050Z,16.80
2018-11-20T15:47:08.070Z,18.60
2018-11-20T15:49:58.703Z,19.60
2018-11-20T15:55:47.285Z,21.10
2018-11-20T15:58:47.089Z,21.90
2018-11-20T16:01:44.641Z,22.00
2018-11-20T16:04:43.633Z,22.70
2018-11-20T16:07:50.539Z,22.80
2018-11-20T16:10:52.685Z,24.10
2018-11-20T16:13:40.212Z,24.90
2018-11-20T16:16:46.769Z,25.70
2018-11-20T16:23:14.923Z,26.40
2018-11-20T16:26:14.352Z,26.10
2018-11-20T16:28:54.245Z,26.00
2018-11-20T16:31:53.875Z,25.50
2018-11-20T16:34:53.039Z,26.50
2018-11-20T16:37:40.433Z,25.90
2018-11-20T16:40:49.365Z,26.80
2018-11-20T16:43:48.359Z,26.20
2018-11-20T16:46:48.074Z,27.50
2018-11-20T16:49:48.108Z,30.90
2018-11-20T16:52:47.489Z,30.50
2018-11-20T16:55:49.396Z,31.40
2018-11-20T17:01:50.522Z,35.60
2018-11-20T17:04:49.648Z,39.70
2018-11-20T17:07:49.537Z,40.40
2018-11-20T17:10:48.949Z,41.40
2018-11-20T17:13:48.432Z,43.50
2018-11-20T17:16:54.322Z,43.00
2018-11-20T17:19:40.402Z,42.50
2018-11-20T17:22:32.687Z,41.70
2018-11-20T17:25:31.933Z,43.90
2018-11-20T17:28:32.858Z,44.30
2018-11-20T17:31:23.953Z,44.40
2018-11-20T17:34:17.585Z,47.80
2018-11-20T17:37:12.261Z,48.20
2018-11-20T17:40:11.252Z,48.20
2018-11-20T17:43:07.501Z,49.10
2018-11-20T17:45:57.167Z,50.30
2018-11-20T17:48:56.820Z,49.70
2018-11-20T17:51:55.824Z,49.60
2018-11-20T17:57:58.321Z,50.90
2018-11-20T18:00:57.601Z,51.00
2018-11-20T18:03:35.923Z,51.30
2018-11-20T18:06:23.686Z,50.60
2018-11-20T18:09:13.774Z,50.30
2018-11-20T18:12:20.659Z,51.60
2018-11-20T18:15:20.625Z,49.70
2018-11-20T18:18:20.269Z,51.60
2018-11-20T18:21:20.131Z,50.90
2018-11-20T18:24:07.783Z,51.30
2018-11-20T18:27:18.699Z,50.00
2018-11-20T18:30:14.198Z,48.40
2018-11-20T18:33:17.531Z,47.30
2018-11-20T18:38:57.686Z,47.50
2018-11-20T18:42:03.298Z,47.30
2018-11-20T18:44:47.016Z,48.60
2018-11-20T18:47:34.330Z,49.20
2018-11-20T18:50:40.950Z,48.40
2018-11-20T18:53:40.080Z,48.70
2018-11-20T18:56:39.141Z,48.50
2018-11-20T18:59:36.502Z,48.60
2018-11-20T19:05:36.000Z,48.60
2018-11-20T19:08:41.997Z,47.90
2018-11-20T19:11:39.218Z,47.30
2018-11-20T19:14:38.940Z,48.10
2018-11-20T19:17:26.697Z,48.10
2018-11-20T19:21:06.746Z,48.00
2018-11-20T19:24:00.509Z,47.10
2018-11-20T19:27:04.166Z,47.20
2018-11-20T19:30:03.388Z,46.50
2018-11-20T19:33:02.555Z,46.80
2018-11-20T19:36:02.225Z,46.50
2018-11-20T19:39:01.293Z,48.10
2018-11-20T19:42:01.310Z,47.10
2018-11-20T19:45:00.995Z,47.80
2018-11-20T19:48:05.960Z,47.10
2018-11-20T19:51:05.093Z,45.90
2018-11-20T19:54:04.902Z,44.80
2018-11-20T19:57:04.588Z,43.80
2018-11-20T20:00:00.993Z,42.40
2018-11-20T20:03:01.175Z,41.30
2018-11-20T20:06:03.559Z,41.40
2018-11-20T20:08:57.127Z,41.20
2018-11-20T20:11:56.737Z,41.40
2018-11-20T20:14:56.726Z,41.80
2018-11-20T20:17:56.346Z,40.40
2018-11-20T20:20:54.081Z,41.30
2018-11-20T20:23:49.560Z,39.20
2018-11-20T20:26:49.514Z,38.30
2018-11-20T20:29:49.198Z,38.40
2018-11-20T20:32:49.335Z,38.60
2018-11-20T20:35:46.320Z,39.30
2018-11-20T20:38:46.302Z,38.70
2018-11-20T20:41:46.106Z,38.10
2018-11-20T20:44:33.079Z,39.30
2018-11-20T20:47:19.875Z,38.00
2018-11-20T20:50:18.962Z,38.40
2018-11-20T20:53:18.417Z,38.60
2018-11-20T20:56:21.050Z,38.20
2018-11-20T20:59:26.893Z,37.20
2018-11-20T21:02:26.234Z,35.50
2018-11-20T21:05:27.052Z,38.00
2018-11-20T21:08:15.013Z,39.30
2018-11-20T21:11:14.088Z,38.10
2018-11-20T21:14:14.045Z,38.40
2018-11-20T21:17:20.087Z,38.30
2018-11-20T21:20:25.636Z,38.20
2018-11-20T21:23:24.566Z,38.10
2018-11-20T21:26:33.560Z,39.40
2018-11-20T21:29:39.247Z,38.10
2018-11-20T21:32:38.416Z,38.40
2018-11-20T21:35:37.518Z,38.00
2018-11-20T21:41:58.836Z,41.10
2018-11-20T21:44:58.539Z,40.20
2018-11-20T21:47:55.549Z,39.50
2018-11-20T21:50:54.615Z,39.10
2018-11-20T21:56:41.568Z,39.10
2018-11-20T21:59:52.454Z,39.60
2018-11-20T22:02:51.767Z,40.40
2018-11-20T22:05:54.650Z,40.50
2018-11-20T22:08:47.488Z,40.10
2018-11-20T22:11:34.517Z,39.60
2018-11-20T22:14:31.302Z,38.20
2018-11-20T22:17:31.774Z,37.70
2018-11-20T22:20:31.502Z,36.90
2018-11-20T22:23:31.308Z,37.70
2018-11-20T22:26:18.101Z,37.80
2018-11-20T22:29:24.603Z,37.40
2018-11-20T22:32:24.704Z,37.70
2018-11-20T22:35:23.712Z,38.20
2018-11-20T22:38:12.029Z,37.70
2018-11-20T22:41:11.112Z,37.60
2018-11-20T22:44:10.620Z,37.60
2018-11-20T22:46:57.816Z,37.40
2018-11-20T22:50:04.341Z,37.70
2018-11-20T22:53:03.666Z,37.70
2018-11-20T22:56:02.755Z,37.70
2018-11-20T22:59:01.776Z,37.60
2018-11-20T23:02:01.587Z,37.80
2018-11-20T23:05:04.407Z,36.80
2018-11-20T23:08:04.027Z,36.90
2018-11-20T23:10:47.996Z,36.20
2018-11-20T23:13:28.365Z,36.80
2018-11-20T23:16:08.547Z,37.80
2018-11-20T23:18:48.615Z,35.70
2018-11-20T23:21:16.554Z,35.90
2018-11-20T23:24:03.592Z,35.70
2018-11-20T23:26:46.858Z,35.50
2018-11-20T23:29:27.203Z,35.00
2018-11-20T23:32:06.896Z,35.20
2018-11-20T23:34:46.695Z,35.40
2018-11-20T23:37:26.331Z,35.70
2018-11-20T23:40:05.870Z,34.40
2018-11-20T23:42:45.670Z,34.60
2018-11-20T23:45:25.610Z,34.60
2018-11-20T23:47:52.947Z,35.00
2018-11-20T23:50:39.837Z,35.30
2018-11-20T23:53:20.094Z,35.40
2018-11-20T23:56:00.373Z,35.30
2018-11-20T23:58:39.979Z,35.20
